St Petersburg Clearwater International Airport
KPIE : rendu visible

Aérodrome :











RETROUVEZ-NOUS SUR...

 
LOGIN :

S'inscrire | Disclaimer

   EN    FR    IT 

 









Légende :    VFR   VFR Marginal   IFR   IFR Intensif   IFR Très Intensif
Visi : 
Plafond : 
>= 8 km
>= 3000ft
5 à 8 km
1000 à 3000 ft
1500m à 5 km
500 à 1000 ft
800 à 1500m
200 à 500 ft
< 800m
< 200 ft
Symboles :   Orages  Brouillard  Fortes neiges  Fortes précipitations  Vent > 20 kt






- Altitude de l'aérodrome : 11 ft
- Code IATA : PIE


KPIE - St Petersburg Clearwater International

DERNIER METAR :
  • 250353Z AUTO 10007KT 10SM SCT050 21/16 A3018 RMK AO2 SLP221 T02110161

METARs EXPIRÉS :
  • 250253Z 10007KT 10SM FEW050 22/16 A3018 RMK AO2 SLP220 T02170161 51007
  • 250153Z 10009KT 10SM CLR 22/16 A3018 RMK AO2 SLP218 T02220156

TAF KPIE
Valide du 25 à 00h jusqu'au 26 à 00h UTC


242326Z 2500/2524 08005KT P6SM SCT050
FM250400 09006KT P6SM SKC
FM251500 12009KT P6SM FEW030
FM251900 14008KT P6SM SCT050
FIR KZMA / Amérique du Nord



MET'MAP, la Météo Aéronautique d'un coup d'oeil ! - Copyright ORBIFLY Décembre 2007 - Disclaimer

ORBIFLY MET'MAP TEAM :

Programmation & Développement : Alexandra Zaïnal
Sur une idée originale de : Baudouin d'Aumeries
Assistance à la programmation : Marc-Olivier Méhu
Soutien technique & logistique : Manuel Goepfert

Contact : metmap@orbifly.com




SOURCES & CREDITS :

   NOAA       Earth
Advisory